sensor_id;sensor_type;location;lat;lon;timestamp;temperature;humidity
32217;DHT22;67098;51.140;4.088;2024-02-21T00:00:57;11.80;99.90
32217;DHT22;67098;51.140;4.088;2024-02-21T00:03:23;11.90;99.90
32217;DHT22;67098;51.140;4.088;2024-02-21T00:05:48;11.80;99.90
32217;DHT22;67098;51.140;4.088;2024-02-21T00:08:14;11.70;99.90
32217;DHT22;67098;51.140;4.088;2024-02-21T00:10:40;11.70;99.90
32217;DHT22;67098;51.140;4.088;2024-02-21T00:13:05;11.80;99.90
32217;DHT22;67098;51.140;4.088;2024-02-21T00:15:31;11.80;99.90
32217;DHT22;67098;51.140;4.088;2024-02-21T00:17:57;11.90;99.90
32217;DHT22;67098;51.140;4.088;2024-02-21T00:20:22;11.80;99.90
32217;DHT22;67098;51.140;4.088;2024-02-21T00:22:48;11.70;99.90
32217;DHT22;67098;51.140;4.088;2024-02-21T00:25:14;11.70;99.90
32217;DHT22;67098;51.140;4.088;2024-02-21T00:27:40;11.80;99.90
32217;DHT22;67098;51.140;4.088;2024-02-21T00:30:06;11.80;99.90
32217;DHT22;67098;51.140;4.088;2024-02-21T00:32:32;11.70;99.90
32217;DHT22;67098;51.140;4.088;2024-02-21T00:34:59;11.50;99.90
32217;DHT22;67098;51.140;4.088;2024-02-21T00:37:25;11.50;99.90
32217;DHT22;67098;51.140;4.088;2024-02-21T00:39:51;11.50;99.90
32217;DHT22;67098;51.140;4.088;2024-02-21T00:42:16;11.50;99.90
32217;DHT22;67098;51.140;4.088;2024-02-21T00:44:42;11.60;99.90
32217;DHT22;67098;51.140;4.088;2024-02-21T00:47:08;11.40;99.90
32217;DHT22;67098;51.140;4.088;2024-02-21T00:49:34;11.60;99.90
32217;DHT22;67098;51.140;4.088;2024-02-21T00:51:59;11.70;99.90
32217;DHT22;67098;51.140;4.088;2024-02-21T00:54:25;11.50;99.90
32217;DHT22;67098;51.140;4.088;2024-02-21T00:56:51;11.50;99.90
32217;DHT22;67098;51.140;4.088;2024-02-21T00:59:18;11.50;99.90
32217;DHT22;67098;51.140;4.088;2024-02-21T01:01:44;11.60;99.90
32217;DHT22;67098;51.140;4.088;2024-02-21T01:04:09;11.60;99.90
32217;DHT22;67098;51.140;4.088;2024-02-21T01:06:35;11.50;99.90
32217;DHT22;67098;51.140;4.088;2024-02-21T01:09:01;11.50;99.90
32217;DHT22;67098;51.140;4.088;2024-02-21T01:11:27;11.50;99.90
32217;DHT22;67098;51.140;4.088;2024-02-21T01:13:55;11.50;99.90
32217;DHT22;67098;51.140;4.088;2024-02-21T01:16:21;11.40;99.90
32217;DHT22;67098;51.140;4.088;2024-02-21T01:18:47;11.30;99.90
32217;DHT22;67098;51.140;4.088;2024-02-21T01:21:12;11.40;99.90
32217;DHT22;67098;51.140;4.088;2024-02-21T01:23:38;11.40;99.90
32217;DHT22;67098;51.140;4.088;2024-02-21T01:26:04;11.50;99.90
32217;DHT22;67098;51.140;4.088;2024-02-21T01:28:31;11.50;99.90
32217;DHT22;67098;51.140;4.088;2024-02-21T01:30:57;11.50;99.90
32217;DHT22;67098;51.140;4.088;2024-02-21T01:33:22;11.50;99.90
32217;DHT22;67098;51.140;4.088;2024-02-21T01:35:48;11.50;99.90
32217;DHT22;67098;51.140;4.088;2024-02-21T01:38:15;11.40;99.90
32217;DHT22;67098;51.140;4.088;2024-02-21T01:40:41;11.40;99.90
32217;DHT22;67098;51.140;4.088;2024-02-21T01:43:16;11.40;99.90
32217;DHT22;67098;51.140;4.088;2024-02-21T01:45:47;11.50;99.90
32217;DHT22;67098;51.140;4.088;2024-02-21T01:48:14;11.50;99.90
32217;DHT22;67098;51.140;4.088;2024-02-21T01:50:40;11.40;99.90
32217;DHT22;67098;51.140;4.088;2024-02-21T01:53:07;11.40;99.90
32217;DHT22;67098;51.140;4.088;2024-02-21T01:55:33;11.50;99.90
32217;DHT22;67098;51.140;4.088;2024-02-21T01:57:59;11.30;99.90
32217;DHT22;67098;51.140;4.088;2024-02-21T02:00:26;11.30;99.90
32217;DHT22;67098;51.140;4.088;2024-02-21T02:02:52;11.30;99.90
32217;DHT22;67098;51.140;4.088;2024-02-21T02:05:18;11.40;99.90
32217;DHT22;67098;51.140;4.088;2024-02-21T02:07:46;11.50;99.90
32217;DHT22;67098;51.140;4.088;2024-02-21T02:10:12;11.50;99.90
32217;DHT22;67098;51.140;4.088;2024-02-21T02:12:38;11.60;99.90
32217;DHT22;67098;51.140;4.088;2024-02-21T02:15:04;11.60;99.90
32217;DHT22;67098;51.140;4.088;2024-02-21T02:17:30;11.40;99.90
32217;DHT22;67098;51.140;4.088;2024-02-21T02:19:56;11.40;99.90
32217;DHT22;67098;51.140;4.088;2024-02-21T02:22:29;11.40;99.90
32217;DHT22;67098;51.140;4.088;2024-02-21T02:24:55;11.40;99.90
32217;DHT22;67098;51.140;4.088;2024-02-21T02:27:21;11.40;99.90
32217;DHT22;67098;51.140;4.088;2024-02-21T02:29:48;11.40;99.90
32217;DHT22;67098;51.140;4.088;2024-02-21T02:32:14;11.50;99.90
32217;DHT22;67098;51.140;4.088;2024-02-21T02:34:40;11.50;99.90
32217;DHT22;67098;51.140;4.088;2024-02-21T02:37:06;11.40;99.90
32217;DHT22;67098;51.140;4.088;2024-02-21T02:39:32;11.40;99.90
32217;DHT22;67098;51.140;4.088;2024-02-21T02:41:57;11.40;99.90
32217;DHT22;67098;51.140;4.088;2024-02-21T02:44:23;11.40;99.90
32217;DHT22;67098;51.140;4.088;2024-02-21T02:46:49;11.30;99.90
32217;DHT22;67098;51.140;4.088;2024-02-21T02:49:15;11.40;99.90
32217;DHT22;67098;51.140;4.088;2024-02-21T02:51:42;11.40;99.90
32217;DHT22;67098;51.140;4.088;2024-02-21T02:54:08;11.40;99.90
32217;DHT22;67098;51.140;4.088;2024-02-21T02:56:34;11.50;99.90
32217;DHT22;67098;51.140;4.088;2024-02-21T02:59:00;11.40;99.90
32217;DHT22;67098;51.140;4.088;2024-02-21T03:01:25;11.30;99.90
32217;DHT22;67098;51.140;4.088;2024-02-21T03:03:51;11.40;99.90
32217;DHT22;67098;51.140;4.088;2024-02-21T03:06:17;11.40;99.90
32217;DHT22;67098;51.140;4.088;2024-02-21T03:08:43;11.30;99.90
32217;DHT22;67098;51.140;4.088;2024-02-21T03:11:09;11.30;99.90
32217;DHT22;67098;51.140;4.088;2024-02-21T03:13:36;11.30;99.90
32217;DHT22;67098;51.140;4.088;2024-02-21T03:16:02;11.30;99.90
32217;DHT22;67098;51.140;4.088;2024-02-21T03:18:28;11.20;99.90
32217;DHT22;67098;51.140;4.088;2024-02-21T03:20:53;11.20;99.90
32217;DHT22;67098;51.140;4.088;2024-02-21T03:23:19;11.30;99.90
32217;DHT22;67098;51.140;4.088;2024-02-21T03:25:45;11.30;99.90
32217;DHT22;67098;51.140;4.088;2024-02-21T03:28:11;11.40;99.90
32217;DHT22;67098;51.140;4.088;2024-02-21T03:30:37;11.30;99.90
32217;DHT22;67098;51.140;4.088;2024-02-21T03:33:02;11.30;99.90
32217;DHT22;67098;51.140;4.088;2024-02-21T03:35:28;11.30;99.90
32217;DHT22;67098;51.140;4.088;2024-02-21T03:37:54;11.30;99.90
32217;DHT22;67098;51.140;4.088;2024-02-21T03:40:20;11.30;99.90
32217;DHT22;67098;51.140;4.088;2024-02-21T03:42:46;11.40;99.90
32217;DHT22;67098;51.140;4.088;2024-02-21T03:45:12;11.40;99.90
32217;DHT22;67098;51.140;4.088;2024-02-21T03:47:37;11.30;99.90
32217;DHT22;67098;51.140;4.088;2024-02-21T03:50:04;11.30;99.90
32217;DHT22;67098;51.140;4.088;2024-02-21T03:52:30;11.30;99.90
32217;DHT22;67098;51.140;4.088;2024-02-21T03:54:56;11.40;99.90
32217;DHT22;67098;51.140;4.088;2024-02-21T03:57:22;11.40;99.90
32217;DHT22;67098;51.140;4.088;2024-02-21T03:59:50;11.50;99.90
32217;DHT22;67098;51.140;4.088;2024-02-21T04:02:16;11.50;99.90
32217;DHT22;67098;51.140;4.088;2024-02-21T04:04:44;11.40;99.90
32217;DHT22;67098;51.140;4.088;2024-02-21T04:07:13;11.40;99.90
32217;DHT22;67098;51.140;4.088;2024-02-21T04:09:38;11.40;99.90
32217;DHT22;67098;51.140;4.088;2024-02-21T04:12:04;11.30;99.90
32217;DHT22;67098;51.140;4.088;2024-02-21T04:14:30;11.40;99.90
32217;DHT22;67098;51.140;4.088;2024-02-21T04:16:57;11.50;99.90
32217;DHT22;67098;51.140;4.088;2024-02-21T04:19:23;11.50;99.90
32217;DHT22;67098;51.140;4.088;2024-02-21T04:21:48;11.50;99.90
32217;DHT22;67098;51.140;4.088;2024-02-21T04:24:14;11.40;99.90
32217;DHT22;67098;51.140;4.088;2024-02-21T04:26:40;11.40;99.90
32217;DHT22;67098;51.140;4.088;2024-02-21T04:29:06;11.40;99.90
32217;DHT22;67098;51.140;4.088;2024-02-21T04:31:34;11.40;99.90
32217;DHT22;67098;51.140;4.088;2024-02-21T04:34:00;11.30;99.90
32217;DHT22;67098;51.140;4.088;2024-02-21T04:36:26;11.20;99.90
32217;DHT22;67098;51.140;4.088;2024-02-21T04:38:52;11.30;99.90
32217;DHT22;67098;51.140;4.088;2024-02-21T04:41:17;11.30;99.90
32217;DHT22;67098;51.140;4.088;2024-02-21T04:43:43;11.30;99.90
32217;DHT22;67098;51.140;4.088;2024-02-21T04:46:09;11.40;99.90
32217;DHT22;67098;51.140;4.088;2024-02-21T04:48:35;11.30;99.90
32217;DHT22;67098;51.140;4.088;2024-02-21T04:51:01;11.30;99.90
32217;DHT22;67098;51.140;4.088;2024-02-21T04:53:27;11.30;99.90
32217;DHT22;67098;51.140;4.088;2024-02-21T04:55:52;11.40;99.90
32217;DHT22;67098;51.140;4.088;2024-02-21T04:58:18;11.30;99.90
32217;DHT22;67098;51.140;4.088;2024-02-21T05:00:44;11.20;99.90
32217;DHT22;67098;51.140;4.088;2024-02-21T05:03:09;11.20;99.90
32217;DHT22;67098;51.140;4.088;2024-02-21T05:05:36;11.20;99.90
32217;DHT22;67098;51.140;4.088;2024-02-21T05:08:02;11.20;99.90
32217;DHT22;67098;51.140;4.088;2024-02-21T05:10:28;11.20;99.90
32217;DHT22;67098;51.140;4.088;2024-02-21T05:12:54;11.20;99.90
32217;DHT22;67098;51.140;4.088;2024-02-21T05:15:19;11.20;99.90
32217;DHT22;67098;51.140;4.088;2024-02-21T05:17:45;11.30;99.90
32217;DHT22;67098;51.140;4.088;2024-02-21T05:20:11;11.20;99.90
32217;DHT22;67098;51.140;4.088;2024-02-21T05:22:37;11.20;99.90
32217;DHT22;67098;51.140;4.088;2024-02-21T05:25:03;11.20;99.90
32217;DHT22;67098;51.140;4.088;2024-02-21T05:27:28;11.20;99.90
32217;DHT22;67098;51.140;4.088;2024-02-21T05:29:54;11.20;99.90
32217;DHT22;67098;51.140;4.088;2024-02-21T05:32:20;11.20;99.90
32217;DHT22;67098;51.140;4.088;2024-02-21T05:34:49;11.20;99.90
32217;DHT22;67098;51.140;4.088;2024-02-21T05:37:15;11.00;99.90
32217;DHT22;67098;51.140;4.088;2024-02-21T05:39:41;11.00;99.90
32217;DHT22;67098;51.140;4.088;2024-02-21T05:42:07;11.10;99.90
32217;DHT22;67098;51.140;4.088;2024-02-21T05:44:33;11.10;99.90
32217;DHT22;67098;51.140;4.088;2024-02-21T05:46:58;11.10;99.90
32217;DHT22;67098;51.140;4.088;2024-02-21T05:49:24;11.00;99.90
32217;DHT22;67098;51.140;4.088;2024-02-21T05:51:50;10.80;99.90
32217;DHT22;67098;51.140;4.088;2024-02-21T05:54:15;10.90;99.90
32217;DHT22;67098;51.140;4.088;2024-02-21T05:56:45;11.00;99.90
32217;DHT22;67098;51.140;4.088;2024-02-21T05:59:11;11.00;99.90
32217;DHT22;67098;51.140;4.088;2024-02-21T06:01:37;11.00;99.90
32217;DHT22;67098;51.140;4.088;2024-02-21T06:04:03;11.10;99.90
32217;DHT22;67098;51.140;4.088;2024-02-21T06:06:30;11.10;99.90
32217;DHT22;67098;51.140;4.088;2024-02-21T06:08:56;11.10;99.90
32217;DHT22;67098;51.140;4.088;2024-02-21T06:11:22;11.10;99.90
32217;DHT22;67098;51.140;4.088;2024-02-21T06:13:48;11.10;99.90
32217;DHT22;67098;51.140;4.088;2024-02-21T06:16:14;11.20;99.90
32217;DHT22;67098;51.140;4.088;2024-02-21T06:18:39;11.20;99.90
32217;DHT22;67098;51.140;4.088;2024-02-21T06:21:05;11.20;99.90
32217;DHT22;67098;51.140;4.088;2024-02-21T06:23:31;11.20;99.90
32217;DHT22;67098;51.140;4.088;2024-02-21T06:25:57;11.20;99.90
32217;DHT22;67098;51.140;4.088;2024-02-21T06:28:22;11.10;99.90
32217;DHT22;67098;51.140;4.088;2024-02-21T06:30:48;11.10;99.90
32217;DHT22;67098;51.140;4.088;2024-02-21T06:33:14;11.20;99.90
32217;DHT22;67098;51.140;4.088;2024-02-21T06:35:40;11.10;99.90
32217;DHT22;67098;51.140;4.088;2024-02-21T06:38:07;11.00;99.90
32217;DHT22;67098;51.140;4.088;2024-02-21T06:40:33;11.00;99.90
32217;DHT22;67098;51.140;4.088;2024-02-21T06:43:04;11.00;99.90
32217;DHT22;67098;51.140;4.088;2024-02-21T06:45:30;10.90;99.90
32217;DHT22;67098;51.140;4.088;2024-02-21T06:47:56;10.90;99.90
32217;DHT22;67098;51.140;4.088;2024-02-21T06:50:22;10.90;99.90
32217;DHT22;67098;51.140;4.088;2024-02-21T06:52:48;10.90;99.90
32217;DHT22;67098;51.140;4.088;2024-02-21T06:55:13;10.90;99.90
32217;DHT22;67098;51.140;4.088;2024-02-21T06:57:39;10.90;99.90
32217;DHT22;67098;51.140;4.088;2024-02-21T07:00:05;10.90;99.90
32217;DHT22;67098;51.140;4.088;2024-02-21T07:02:34;11.10;99.90
32217;DHT22;67098;51.140;4.088;2024-02-21T07:04:59;11.10;99.90
32217;DHT22;67098;51.140;4.088;2024-02-21T07:07:25;11.10;99.90
32217;DHT22;67098;51.140;4.088;2024-02-21T07:09:51;11.20;99.90
32217;DHT22;67098;51.140;4.088;2024-02-21T07:12:18;11.20;99.90
32217;DHT22;67098;51.140;4.088;2024-02-21T07:14:45;11.20;99.90
32217;DHT22;67098;51.140;4.088;2024-02-21T07:17:10;11.20;99.90
32217;DHT22;67098;51.140;4.088;2024-02-21T07:19:36;11.30;99.90
32217;DHT22;67098;51.140;4.088;2024-02-21T07:22:02;11.20;99.90
32217;DHT22;67098;51.140;4.088;2024-02-21T07:24:28;11.30;99.90
32217;DHT22;67098;51.140;4.088;2024-02-21T07:26:54;11.30;99.90
32217;DHT22;67098;51.140;4.088;2024-02-21T07:29:19;11.40;99.90
32217;DHT22;67098;51.140;4.088;2024-02-21T07:31:45;11.50;99.90
32217;DHT22;67098;51.140;4.088;2024-02-21T07:34:11;11.50;99.90
32217;DHT22;67098;51.140;4.088;2024-02-21T07:36:37;11.50;99.90
32217;DHT22;67098;51.140;4.088;2024-02-21T07:39:04;11.40;99.90
32217;DHT22;67098;51.140;4.088;2024-02-21T07:41:30;11.40;99.90
32217;DHT22;67098;51.140;4.088;2024-02-21T07:43:56;11.40;99.90
32217;DHT22;67098;51.140;4.088;2024-02-21T07:46:22;11.40;99.90
32217;DHT22;67098;51.140;4.088;2024-02-21T07:48:48;11.40;99.90
32217;DHT22;67098;51.140;4.088;2024-02-21T07:51:14;11.40;99.90
32217;DHT22;67098;51.140;4.088;2024-02-21T07:53:40;11.40;99.90
32217;DHT22;67098;51.140;4.088;2024-02-21T07:56:13;11.40;99.90
32217;DHT22;67098;51.140;4.088;2024-02-21T07:58:40;11.40;99.90
32217;DHT22;67098;51.140;4.088;2024-02-21T08:01:06;11.40;99.90
32217;DHT22;67098;51.140;4.088;2024-02-21T08:03:31;11.30;99.90
32217;DHT22;67098;51.140;4.088;2024-02-21T08:05:57;11.50;99.90
32217;DHT22;67098;51.140;4.088;2024-02-21T08:08:23;11.60;99.90
32217;DHT22;67098;51.140;4.088;2024-02-21T08:10:50;11.60;99.90
32217;DHT22;67098;51.140;4.088;2024-02-21T08:13:16;11.60;99.90
32217;DHT22;67098;51.140;4.088;2024-02-21T08:15:42;11.70;99.90
32217;DHT22;67098;51.140;4.088;2024-02-21T08:18:08;11.80;99.90
32217;DHT22;67098;51.140;4.088;2024-02-21T08:20:34;11.70;99.90
32217;DHT22;67098;51.140;4.088;2024-02-21T08:23:00;11.70;99.90
32217;DHT22;67098;51.140;4.088;2024-02-21T08:25:26;11.80;99.90
32217;DHT22;67098;51.140;4.088;2024-02-21T08:27:56;11.60;99.90
32217;DHT22;67098;51.140;4.088;2024-02-21T08:30:22;11.60;99.90
32217;DHT22;67098;51.140;4.088;2024-02-21T08:32:48;11.60;99.90
32217;DHT22;67098;51.140;4.088;2024-02-21T08:35:14;11.60;99.90
32217;DHT22;67098;51.140;4.088;2024-02-21T08:37:40;11.60;99.90
32217;DHT22;67098;51.140;4.088;2024-02-21T08:40:06;11.70;99.90
32217;DHT22;67098;51.140;4.088;2024-02-21T08:42:38;11.80;99.90
32217;DHT22;67098;51.140;4.088;2024-02-21T08:45:04;11.80;99.90
32217;DHT22;67098;51.140;4.088;2024-02-21T08:47:30;11.90;99.90
32217;DHT22;67098;51.140;4.088;2024-02-21T08:49:56;11.90;99.90
32217;DHT22;67098;51.140;4.088;2024-02-21T08:52:22;12.00;99.90
32217;DHT22;67098;51.140;4.088;2024-02-21T08:54:48;12.10;99.90
32217;DHT22;67098;51.140;4.088;2024-02-21T08:57:13;12.20;99.90
32217;DHT22;67098;51.140;4.088;2024-02-21T08:59:40;12.20;99.90
32217;DHT22;67098;51.140;4.088;2024-02-21T09:02:05;12.20;99.90
32217;DHT22;67098;51.140;4.088;2024-02-21T09:04:32;12.30;99.90
32217;DHT22;67098;51.140;4.088;2024-02-21T09:06:59;12.30;99.90
32217;DHT22;67098;51.140;4.088;2024-02-21T09:09:25;12.30;99.90
32217;DHT22;67098;51.140;4.088;2024-02-21T09:11:51;12.50;99.90
32217;DHT22;67098;51.140;4.088;2024-02-21T09:14:17;12.40;99.90
32217;DHT22;67098;51.140;4.088;2024-02-21T09:16:43;12.50;99.90
32217;DHT22;67098;51.140;4.088;2024-02-21T09:19:09;12.40;99.90
32217;DHT22;67098;51.140;4.088;2024-02-21T09:21:38;12.40;99.90
32217;DHT22;67098;51.140;4.088;2024-02-21T09:24:05;12.50;99.90
32217;DHT22;67098;51.140;4.088;2024-02-21T09:26:31;12.60;99.90
32217;DHT22;67098;51.140;4.088;2024-02-21T09:28:57;12.50;99.90
32217;DHT22;67098;51.140;4.088;2024-02-21T09:31:23;12.60;99.90
32217;DHT22;67098;51.140;4.088;2024-02-21T09:33:48;12.70;99.90
32217;DHT22;67098;51.140;4.088;2024-02-21T09:36:14;12.80;99.90
32217;DHT22;67098;51.140;4.088;2024-02-21T09:38:40;12.80;99.90
32217;DHT22;67098;51.140;4.088;2024-02-21T09:41:18;12.80;99.90
32217;DHT22;67098;51.140;4.088;2024-02-21T09:43:44;12.80;99.90
32217;DHT22;67098;51.140;4.088;2024-02-21T09:46:17;12.80;99.90
32217;DHT22;67098;51.140;4.088;2024-02-21T09:49:35;12.60;99.90
32217;DHT22;67098;51.140;4.088;2024-02-21T09:52:01;12.50;99.90
32217;DHT22;67098;51.140;4.088;2024-02-21T09:54:30;12.60;99.90
32217;DHT22;67098;51.140;4.088;2024-02-21T09:56:58;12.70;99.90
32217;DHT22;67098;51.140;4.088;2024-02-21T09:59:24;12.50;99.90
32217;DHT22;67098;51.140;4.088;2024-02-21T10:01:51;12.40;99.90
32217;DHT22;67098;51.140;4.088;2024-02-21T10:04:17;12.50;99.90
32217;DHT22;67098;51.140;4.088;2024-02-21T10:06:44;12.70;99.90
32217;DHT22;67098;51.140;4.088;2024-02-21T10:09:20;12.60;99.90
32217;DHT22;67098;51.140;4.088;2024-02-21T10:11:47;12.50;99.90
32217;DHT22;67098;51.140;4.088;2024-02-21T10:14:13;12.70;99.90
32217;DHT22;67098;51.140;4.088;2024-02-21T10:16:39;12.70;99.90
32217;DHT22;67098;51.140;4.088;2024-02-21T10:19:05;12.70;99.90
32217;DHT22;67098;51.140;4.088;2024-02-21T10:21:31;12.70;99.90
32217;DHT22;67098;51.140;4.088;2024-02-21T10:23:57;12.60;99.90
32217;DHT22;67098;51.140;4.088;2024-02-21T10:26:22;12.70;99.90
32217;DHT22;67098;51.140;4.088;2024-02-21T10:28:48;12.50;99.90
32217;DHT22;67098;51.140;4.088;2024-02-21T10:31:24;12.40;99.90
32217;DHT22;67098;51.140;4.088;2024-02-21T10:34:02;12.40;99.90
32217;DHT22;67098;51.140;4.088;2024-02-21T10:36:31;12.30;99.90
32217;DHT22;67098;51.140;4.088;2024-02-21T10:38:57;12.30;99.90
32217;DHT22;67098;51.140;4.088;2024-02-21T10:41:24;12.40;99.90
32217;DHT22;67098;51.140;4.088;2024-02-21T10:43:54;12.80;99.90
32217;DHT22;67098;51.140;4.088;2024-02-21T10:46:22;13.10;99.90
32217;DHT22;67098;51.140;4.088;2024-02-21T10:49:01;13.30;99.90
32217;DHT22;67098;51.140;4.088;2024-02-21T10:51:33;13.40;99.90
32217;DHT22;67098;51.140;4.088;2024-02-21T10:56:30;13.30;99.90
32217;DHT22;67098;51.140;4.088;2024-02-21T10:59:06;13.20;99.90
32217;DHT22;67098;51.140;4.088;2024-02-21T11:01:33;13.10;99.90
32217;DHT22;67098;51.140;4.088;2024-02-21T11:04:08;13.10;99.90
32217;DHT22;67098;51.140;4.088;2024-02-21T11:06:38;12.90;99.90
32217;DHT22;67098;51.140;4.088;2024-02-21T11:09:06;12.70;99.90
32217;DHT22;67098;51.140;4.088;2024-02-21T11:11:39;12.60;99.90
32217;DHT22;67098;51.140;4.088;2024-02-21T11:14:09;12.60;99.90
32217;DHT22;67098;51.140;4.088;2024-02-21T11:16:44;12.60;99.90
32217;DHT22;67098;51.140;4.088;2024-02-21T11:19:19;12.60;99.90
32217;DHT22;67098;51.140;4.088;2024-02-21T11:21:45;12.60;99.90
32217;DHT22;67098;51.140;4.088;2024-02-21T11:24:11;12.50;99.90
32217;DHT22;67098;51.140;4.088;2024-02-21T11:26:40;12.50;99.90
32217;DHT22;67098;51.140;4.088;2024-02-21T11:29:09;12.40;99.90
32217;DHT22;67098;51.140;4.088;2024-02-21T11:31:43;12.50;99.90
32217;DHT22;67098;51.140;4.088;2024-02-21T11:34:10;12.50;99.90
32217;DHT22;67098;51.140;4.088;2024-02-21T11:36:45;12.40;99.90
32217;DHT22;67098;51.140;4.088;2024-02-21T11:39:11;12.30;99.90
32217;DHT22;67098;51.140;4.088;2024-02-21T11:41:37;12.20;99.90
32217;DHT22;67098;51.140;4.088;2024-02-21T11:44:03;12.30;99.90
32217;DHT22;67098;51.140;4.088;2024-02-21T11:46:29;12.50;99.90
32217;DHT22;67098;51.140;4.088;2024-02-21T11:48:56;12.60;99.90
32217;DHT22;67098;51.140;4.088;2024-02-21T11:51:26;12.80;99.90
32217;DHT22;67098;51.140;4.088;2024-02-21T11:53:52;12.70;99.90
32217;DHT22;67098;51.140;4.088;2024-02-21T11:56:19;12.70;99.90
32217;DHT22;67098;51.140;4.088;2024-02-21T11:58:49;12.70;99.90
32217;DHT22;67098;51.140;4.088;2024-02-21T12:01:15;12.80;99.90
32217;DHT22;67098;51.140;4.088;2024-02-21T12:03:42;12.70;99.90
32217;DHT22;67098;51.140;4.088;2024-02-21T12:06:07;12.60;99.90
32217;DHT22;67098;51.140;4.088;2024-02-21T12:08:46;12.50;99.90
32217;DHT22;67098;51.140;4.088;2024-02-21T12:11:23;12.50;99.90
32217;DHT22;67098;51.140;4.088;2024-02-21T12:13:59;12.60;99.90
32217;DHT22;67098;51.140;4.088;2024-02-21T12:16:27;12.70;99.90
32217;DHT22;67098;51.140;4.088;2024-02-21T12:18:54;12.60;99.90
32217;DHT22;67098;51.140;4.088;2024-02-21T12:21:24;12.60;99.90
32217;DHT22;67098;51.140;4.088;2024-02-21T12:23:49;12.50;99.90
32217;DHT22;67098;51.140;4.088;2024-02-21T12:26:15;12.30;99.90
32217;DHT22;67098;51.140;4.088;2024-02-21T12:28:41;12.40;99.90
32217;DHT22;67098;51.140;4.088;2024-02-21T12:31:07;12.60;99.90
32217;DHT22;67098;51.140;4.088;2024-02-21T12:33:32;12.70;99.90
32217;DHT22;67098;51.140;4.088;2024-02-21T12:35:58;12.70;99.90
32217;DHT22;67098;51.140;4.088;2024-02-21T12:38:24;12.80;99.90
32217;DHT22;67098;51.140;4.088;2024-02-21T12:40:50;13.00;99.90
32217;DHT22;67098;51.140;4.088;2024-02-21T12:43:16;13.20;99.90
32217;DHT22;67098;51.140;4.088;2024-02-21T12:45:41;13.20;99.90
32217;DHT22;67098;51.140;4.088;2024-02-21T12:48:07;13.30;99.90
32217;DHT22;67098;51.140;4.088;2024-02-21T12:50:33;13.30;99.90
32217;DHT22;67098;51.140;4.088;2024-02-21T12:52:59;13.20;99.90
32217;DHT22;67098;51.140;4.088;2024-02-21T12:55:25;13.10;99.90
32217;DHT22;67098;51.140;4.088;2024-02-21T12:57:51;13.10;99.90
32217;DHT22;67098;51.140;4.088;2024-02-21T13:00:18;13.10;99.90
32217;DHT22;67098;51.140;4.088;2024-02-21T13:02:44;13.10;99.90
32217;DHT22;67098;51.140;4.088;2024-02-21T13:05:11;13.10;99.90
32217;DHT22;67098;51.140;4.088;2024-02-21T13:07:37;13.00;99.90
32217;DHT22;67098;51.140;4.088;2024-02-21T13:10:03;13.00;99.90
32217;DHT22;67098;51.140;4.088;2024-02-21T13:12:30;12.90;99.90
32217;DHT22;67098;51.140;4.088;2024-02-21T13:14:56;12.80;99.90
32217;DHT22;67098;51.140;4.088;2024-02-21T13:17:22;13.00;99.90
32217;DHT22;67098;51.140;4.088;2024-02-21T13:19:48;13.10;99.90
32217;DHT22;67098;51.140;4.088;2024-02-21T13:22:13;13.20;99.90
32217;DHT22;67098;51.140;4.088;2024-02-21T13:24:39;13.30;99.90
32217;DHT22;67098;51.140;4.088;2024-02-21T13:27:05;13.30;99.90
32217;DHT22;67098;51.140;4.088;2024-02-21T13:29:31;13.30;99.90
32217;DHT22;67098;51.140;4.088;2024-02-21T13:31:57;13.40;99.90
32217;DHT22;67098;51.140;4.088;2024-02-21T13:34:22;13.40;99.90
32217;DHT22;67098;51.140;4.088;2024-02-21T13:36:48;13.30;99.90
32217;DHT22;67098;51.140;4.088;2024-02-21T13:39:14;13.20;99.90
32217;DHT22;67098;51.140;4.088;2024-02-21T13:41:42;13.20;99.90
32217;DHT22;67098;51.140;4.088;2024-02-21T13:44:08;13.40;99.90
32217;DHT22;67098;51.140;4.088;2024-02-21T13:46:35;13.40;99.90
32217;DHT22;67098;51.140;4.088;2024-02-21T13:49:05;13.40;99.90
32217;DHT22;67098;51.140;4.088;2024-02-21T13:51:34;13.50;99.90
32217;DHT22;67098;51.140;4.088;2024-02-21T13:54:03;13.40;99.90
32217;DHT22;67098;51.140;4.088;2024-02-21T13:56:30;13.50;99.90
32217;DHT22;67098;51.140;4.088;2024-02-21T13:58:57;13.40;99.90
32217;DHT22;67098;51.140;4.088;2024-02-21T14:01:23;13.60;99.90
32217;DHT22;67098;51.140;4.088;2024-02-21T14:03:49;13.50;99.90
32217;DHT22;67098;51.140;4.088;2024-02-21T14:06:14;13.40;99.90
32217;DHT22;67098;51.140;4.088;2024-02-21T14:08:40;13.40;99.90
32217;DHT22;67098;51.140;4.088;2024-02-21T14:11:07;13.40;99.90
32217;DHT22;67098;51.140;4.088;2024-02-21T14:13:33;13.40;99.90
32217;DHT22;67098;51.140;4.088;2024-02-21T14:15:58;13.30;99.90
32217;DHT22;67098;51.140;4.088;2024-02-21T14:18:24;13.40;99.90
32217;DHT22;67098;51.140;4.088;2024-02-21T14:20:49;13.40;99.90
32217;DHT22;67098;51.140;4.088;2024-02-21T14:23:15;13.20;99.90
32217;DHT22;67098;51.140;4.088;2024-02-21T14:25:41;13.00;99.90
32217;DHT22;67098;51.140;4.088;2024-02-21T14:28:08;13.00;99.90
32217;DHT22;67098;51.140;4.088;2024-02-21T14:30:36;13.00;99.90
32217;DHT22;67098;51.140;4.088;2024-02-21T14:33:02;12.90;99.90
32217;DHT22;67098;51.140;4.088;2024-02-21T14:35:28;12.90;99.90
32217;DHT22;67098;51.140;4.088;2024-02-21T14:37:54;12.80;99.90
32217;DHT22;67098;51.140;4.088;2024-02-21T14:40:22;12.80;99.90
32217;DHT22;67098;51.140;4.088;2024-02-21T14:42:48;12.70;99.90
32217;DHT22;67098;51.140;4.088;2024-02-21T14:45:14;12.60;99.90
32217;DHT22;67098;51.140;4.088;2024-02-21T14:47:39;12.60;99.90
32217;DHT22;67098;51.140;4.088;2024-02-21T14:50:06;12.70;99.90
32217;DHT22;67098;51.140;4.088;2024-02-21T14:52:33;12.60;99.90
32217;DHT22;67098;51.140;4.088;2024-02-21T14:55:00;12.50;99.90
32217;DHT22;67098;51.140;4.088;2024-02-21T14:57:28;12.50;99.90
32217;DHT22;67098;51.140;4.088;2024-02-21T14:59:54;12.60;99.90
32217;DHT22;67098;51.140;4.088;2024-02-21T15:02:25;12.50;99.90
32217;DHT22;67098;51.140;4.088;2024-02-21T15:04:52;12.60;99.90
32217;DHT22;67098;51.140;4.088;2024-02-21T15:07:19;12.50;99.90
32217;DHT22;67098;51.140;4.088;2024-02-21T15:09:49;12.30;99.90
32217;DHT22;67098;51.140;4.088;2024-02-21T15:12:16;12.20;99.90
32217;DHT22;67098;51.140;4.088;2024-02-21T15:14:41;12.30;99.90
32217;DHT22;67098;51.140;4.088;2024-02-21T15:17:09;12.30;99.90
32217;DHT22;67098;51.140;4.088;2024-02-21T15:19:35;12.50;99.90
32217;DHT22;67098;51.140;4.088;2024-02-21T15:22:02;12.50;99.90
32217;DHT22;67098;51.140;4.088;2024-02-21T15:24:28;12.50;99.90
32217;DHT22;67098;51.140;4.088;2024-02-21T15:26:54;12.50;99.90
32217;DHT22;67098;51.140;4.088;2024-02-21T15:29:20;12.50;99.90